createdAt,value
2022-08-17T00:00:43.625Z,15.14
2022-08-17T00:03:05.671Z,15.06
2022-08-17T00:05:07.639Z,15.07
2022-08-17T00:07:09.546Z,15.04
2022-08-17T00:09:11.197Z,15.02
2022-08-17T00:11:25.330Z,15.05
2022-08-17T00:13:31.820Z,15.11
2022-08-17T00:15:33.471Z,15.09
2022-08-17T00:17:35.239Z,14.99
2022-08-17T00:19:36.872Z,14.92
2022-08-17T00:22:32.747Z,14.86
2022-08-17T00:24:19.785Z,14.79
2022-08-17T00:26:43.162Z,14.78
2022-08-17T00:28:44.494Z,14.77
2022-08-17T00:30:53.554Z,14.82
2022-08-17T00:33:14.482Z,14.82
2022-08-17T00:35:23.223Z,14.78
2022-08-17T00:37:24.921Z,14.71
2022-08-17T00:39:26.619Z,14.64
2022-08-17T00:41:29.425Z,14.58
2022-08-17T00:43:37.789Z,14.55
2022-08-17T00:45:39.488Z,14.57
2022-08-17T00:47:41.672Z,14.59
2022-08-17T00:49:43.337Z,14.57
2022-08-17T00:51:53.378Z,14.54
2022-08-17T00:54:00.055Z,14.51
2022-08-17T00:56:05.499Z,14.56
2022-08-17T00:58:08.054Z,14.73
2022-08-17T01:00:18.002Z,14.79
2022-08-17T01:02:20.165Z,14.82
2022-08-17T01:04:22.928Z,14.83
2022-08-17T01:06:25.026Z,14.86
2022-08-17T01:08:31.101Z,14.86
2022-08-17T01:10:58.556Z,14.94
2022-08-17T01:13:03.457Z,15.08
2022-08-17T01:15:06.059Z,15.18
2022-08-17T01:17:09.187Z,15.29
2022-08-17T01:19:41.009Z,15.39
2022-08-17T01:21:54.916Z,15.56
2022-08-17T01:23:56.690Z,15.69
2022-08-17T01:26:01.789Z,15.77
2022-08-17T01:28:03.977Z,15.84
2022-08-17T01:30:58.541Z,15.90
2022-08-17T01:32:32.546Z,15.95
2022-08-17T01:34:42.663Z,15.97
2022-08-17T01:37:05.715Z,16.01
2022-08-17T01:39:12.362Z,16.00
2022-08-17T01:41:16.422Z,15.99
2022-08-17T01:43:22.853Z,16.00
2022-08-17T01:45:28.393Z,16.03
2022-08-17T01:47:30.114Z,16.07
2022-08-17T01:49:32.944Z,16.11
2022-08-17T01:51:34.664Z,16.13
2022-08-17T01:53:40.066Z,16.13
2022-08-17T01:55:47.158Z,16.13
2022-08-17T01:57:48.892Z,16.16
2022-08-17T01:59:50.575Z,16.19
2022-08-17T02:01:52.732Z,16.22
2022-08-17T02:03:59.766Z,16.26
2022-08-17T02:06:05.193Z,16.32
2022-08-17T02:08:07.494Z,16.35
2022-08-17T02:10:19.906Z,16.39
2022-08-17T02:12:47.940Z,16.47
2022-08-17T02:14:46.933Z,16.58
2022-08-17T02:16:48.608Z,16.62
2022-08-17T02:18:50.353Z,16.70
2022-08-17T02:20:52.590Z,16.74
2022-08-17T02:22:54.288Z,16.71
2022-08-17T02:24:59.675Z,16.67
2022-08-17T02:27:03.991Z,16.62
2022-08-17T02:29:06.008Z,16.57
2022-08-17T02:31:08.847Z,16.52
2022-08-17T02:33:11.527Z,16.52
2022-08-17T02:35:14.548Z,16.53
2022-08-17T02:37:21.104Z,16.61
2022-08-17T02:39:22.845Z,16.64
2022-08-17T02:41:24.519Z,16.65
2022-08-17T02:43:27.544Z,16.57
2022-08-17T02:45:29.325Z,16.54
2022-08-17T02:47:31.375Z,16.54
2022-08-17T02:49:32.975Z,16.55
2022-08-17T02:51:37.910Z,16.54
2022-08-17T02:53:41.017Z,16.55
2022-08-17T02:55:45.977Z,16.56
2022-08-17T02:57:48.356Z,16.56
2022-08-17T02:59:51.293Z,16.56
2022-08-17T03:01:53.738Z,16.58
2022-08-17T03:03:57.172Z,16.59
2022-08-17T03:05:59.027Z,16.61
2022-08-17T03:08:00.810Z,16.65
2022-08-17T03:10:02.565Z,16.69
2022-08-17T03:12:09.696Z,16.72
2022-08-17T03:14:11.563Z,16.75
2022-08-17T03:16:14.415Z,16.75
2022-08-17T03:18:24.855Z,16.74
2022-08-17T03:20:29.237Z,16.77
2022-08-17T03:22:47.786Z,16.78
2022-08-17T03:24:50.930Z,16.81
2022-08-17T03:26:52.603Z,16.83
2022-08-17T03:28:54.259Z,16.84
2022-08-17T03:30:56.119Z,16.84
2022-08-17T03:33:00.231Z,16.82
2022-08-17T03:35:01.947Z,16.79
2022-08-17T03:37:08.161Z,16.79
2022-08-17T03:39:10.177Z,16.81
2022-08-17T03:41:11.832Z,16.82
2022-08-17T03:43:14.072Z,16.83
2022-08-17T03:45:42.385Z,16.82
2022-08-17T03:48:10.842Z,16.83
2022-08-17T03:50:19.152Z,16.84
2022-08-17T03:52:39.404Z,16.86
2022-08-17T03:55:01.077Z,16.91
2022-08-17T03:57:07.373Z,16.97
2022-08-17T03:59:20.945Z,16.94
2022-08-17T04:01:24.812Z,16.93
2022-08-17T04:03:26.507Z,16.94
2022-08-17T04:05:28.249Z,16.94
2022-08-17T04:07:31.497Z,16.93
2022-08-17T04:09:34.768Z,16.92
2022-08-17T04:11:37.239Z,16.89
2022-08-17T04:13:42.771Z,16.89
2022-08-17T04:15:44.465Z,16.88
2022-08-17T04:17:58.354Z,16.88
2022-08-17T04:20:00.012Z,16.88
2022-08-17T04:22:01.770Z,16.89
2022-08-17T04:24:04.592Z,16.93
2022-08-17T04:26:06.317Z,17.04
2022-08-17T04:28:16.303Z,17.11
2022-08-17T04:30:18.191Z,17.10
2022-08-17T04:32:24.851Z,17.06
2022-08-17T04:34:41.669Z,17.03
2022-08-17T04:36:47.987Z,17.03
2022-08-17T04:38:52.144Z,17.04
2022-08-17T04:41:13.369Z,17.01
2022-08-17T04:43:18.852Z,16.99
2022-08-17T04:45:20.659Z,16.98
2022-08-17T04:47:24.251Z,16.96
2022-08-17T04:49:26.665Z,16.97
2022-08-17T04:51:54.501Z,17.00
2022-08-17T04:54:00.316Z,17.00
2022-08-17T04:56:02.436Z,16.97
2022-08-17T04:58:07.452Z,16.96
2022-08-17T05:00:11.017Z,16.96
2022-08-17T05:02:13.989Z,16.94
2022-08-17T05:04:34.389Z,16.93
2022-08-17T05:06:37.244Z,16.92
2022-08-17T05:08:39.382Z,16.92
2022-08-17T05:10:45.159Z,16.93
2022-08-17T05:12:48.501Z,16.92
2022-08-17T05:14:50.264Z,16.90
2022-08-17T05:16:51.887Z,16.91
2022-08-17T05:18:53.708Z,16.93
2022-08-17T05:20:55.932Z,16.93
2022-08-17T05:23:01.207Z,16.93
2022-08-17T05:25:03.097Z,16.94
2022-08-17T05:27:06.534Z,16.97
2022-08-17T05:29:08.533Z,16.99
2022-08-17T05:31:11.487Z,17.00
2022-08-17T05:33:18.032Z,17.00
2022-08-17T05:35:19.751Z,17.01
2022-08-17T05:37:22.409Z,17.03
2022-08-17T05:39:24.153Z,17.07
2022-08-17T05:41:25.909Z,17.10
2022-08-17T05:43:33.269Z,17.11
2022-08-17T05:45:54.251Z,17.14
2022-08-17T05:47:57.633Z,17.15
2022-08-17T05:49:59.533Z,17.17
2022-08-17T05:52:07.579Z,17.19
2022-08-17T05:54:46.536Z,17.23
2022-08-17T05:57:04.187Z,17.26
2022-08-17T05:59:55.902Z,17.31
2022-08-17T06:02:09.803Z,17.34
2022-08-17T06:04:31.357Z,17.39
2022-08-17T06:07:05.516Z,17.43
2022-08-17T06:09:33.925Z,17.43
2022-08-17T06:11:44.283Z,17.45
2022-08-17T06:14:10.650Z,17.47
2022-08-17T06:16:33.465Z,17.50
2022-08-17T06:19:05.338Z,17.52
2022-08-17T06:21:08.718Z,17.54
2022-08-17T06:23:29.676Z,17.54
2022-08-17T06:26:03.824Z,17.56
2022-08-17T06:28:09.338Z,17.66
2022-08-17T06:30:20.346Z,17.73
2022-08-17T06:32:22.953Z,17.79
2022-08-17T06:34:24.678Z,17.83
2022-08-17T06:36:40.004Z,17.92
2022-08-17T06:39:05.422Z,18.00
2022-08-17T06:41:31.803Z,18.03
2022-08-17T06:43:45.076Z,18.07
2022-08-17T06:46:11.649Z,18.15
2022-08-17T06:48:24.601Z,18.24
2022-08-17T06:50:36.519Z,18.27
2022-08-17T06:52:52.779Z,18.26
2022-08-17T06:55:18.165Z,18.28
2022-08-17T06:57:25.342Z,18.33
2022-08-17T06:59:55.013Z,18.33
2022-08-17T07:01:56.518Z,18.33
2022-08-17T07:04:13.097Z,18.36
2022-08-17T07:06:17.621Z,18.42
2022-08-17T07:08:29.981Z,18.49
2022-08-17T07:11:17.308Z,18.62
2022-08-17T07:13:38.655Z,18.73
2022-08-17T07:15:42.647Z,18.76
2022-08-17T07:17:48.380Z,18.82
2022-08-17T07:19:52.423Z,18.94
2022-08-17T07:22:31.122Z,19.06
2022-08-17T07:24:58.361Z,19.18
2022-08-17T07:27:10.720Z,19.33
2022-08-17T07:29:16.772Z,19.41
2022-08-17T07:31:20.453Z,19.42
2022-08-17T07:33:28.110Z,19.49
2022-08-17T07:35:37.628Z,19.61
2022-08-17T07:37:53.429Z,19.74
2022-08-17T07:39:59.717Z,19.81
2022-08-17T07:42:20.795Z,19.85
2022-08-17T07:44:23.177Z,19.84
2022-08-17T07:46:54.385Z,19.82
2022-08-17T07:49:16.050Z,19.75
2022-08-17T07:51:28.174Z,19.69
2022-08-17T07:53:32.394Z,19.66
2022-08-17T07:55:40.735Z,19.61
2022-08-17T07:57:42.982Z,19.61
2022-08-17T08:00:00.019Z,19.67
2022-08-17T08:02:31.093Z,19.76
2022-08-17T08:05:00.573Z,19.89
2022-08-17T08:07:07.949Z,19.99
2022-08-17T08:09:32.801Z,20.07
2022-08-17T08:11:40.126Z,20.13
2022-08-17T08:13:48.131Z,20.15
2022-08-17T08:15:55.396Z,20.12
2022-08-17T08:18:01.878Z,20.11
2022-08-17T08:20:51.283Z,20.14
2022-08-17T08:22:41.169Z,20.19
2022-08-17T08:25:02.615Z,20.23
2022-08-17T08:27:27.295Z,20.32
2022-08-17T08:29:38.144Z,20.35
2022-08-17T08:31:58.410Z,20.37
2022-08-17T08:34:07.029Z,20.34
2022-08-17T08:37:14.295Z,20.33
2022-08-17T08:39:14.416Z,20.33
2022-08-17T08:41:29.738Z,20.29
2022-08-17T08:43:55.466Z,20.19
2022-08-17T08:46:06.027Z,20.13
2022-08-17T08:48:57.060Z,20.07
2022-08-17T08:50:54.545Z,20.00
2022-08-17T08:53:11.541Z,19.98
2022-08-17T08:55:18.570Z,19.92
2022-08-17T08:57:29.058Z,19.86
2022-08-17T08:59:58.313Z,19.83
2022-08-17T09:02:00.225Z,19.86
2022-08-17T09:04:24.327Z,19.89
2022-08-17T09:06:48.153Z,19.92
2022-08-17T09:09:10.498Z,19.96
2022-08-17T09:12:02.850Z,20.04
2022-08-17T09:14:21.887Z,20.14
2022-08-17T09:16:35.100Z,20.18
2022-08-17T09:19:02.891Z,20.23
2022-08-17T09:21:56.795Z,20.28
2022-08-17T09:24:02.450Z,20.35
2022-08-17T09:26:12.308Z,20.40
2022-08-17T09:28:29.042Z,20.48
2022-08-17T09:31:04.329Z,20.55
2022-08-17T09:33:10.713Z,20.60
2022-08-17T09:35:37.234Z,20.63
2022-08-17T09:38:02.279Z,20.66
2022-08-17T09:40:25.018Z,20.74
2022-08-17T09:42:38.475Z,20.79
2022-08-17T09:44:44.491Z,20.83
2022-08-17T09:46:53.640Z,20.82
2022-08-17T09:49:21.870Z,20.83
2022-08-17T09:51:43.950Z,20.79
2022-08-17T09:53:45.736Z,20.80
2022-08-17T09:55:47.356Z,20.88
2022-08-17T09:58:08.356Z,20.93
2022-08-17T10:00:25.757Z,20.96
2022-08-17T10:02:40.531Z,21.00
2022-08-17T10:05:02.345Z,20.98
2022-08-17T10:07:10.003Z,20.93
2022-08-17T10:09:43.206Z,20.92
2022-08-17T10:12:30.164Z,20.99
2022-08-17T10:14:44.218Z,21.03
2022-08-17T10:16:56.073Z,21.02
2022-08-17T10:19:21.133Z,21.02
2022-08-17T10:21:42.521Z,21.12
2022-08-17T10:24:03.796Z,21.26
2022-08-17T10:26:25.082Z,21.38
2022-08-17T10:28:30.529Z,21.54
2022-08-17T10:30:37.424Z,21.66
2022-08-17T10:32:44.511Z,21.77
2022-08-17T10:35:04.912Z,21.89
2022-08-17T10:37:09.626Z,21.99
2022-08-17T10:42:48.943Z,22.07
2022-08-17T10:44:56.497Z,22.18
2022-08-17T10:47:08.765Z,22.25
2022-08-17T10:49:21.115Z,22.36
2022-08-17T10:51:38.162Z,22.46
2022-08-17T10:53:40.660Z,22.52
2022-08-17T10:56:13.798Z,22.59
2022-08-17T11:01:34.439Z,22.78
2022-08-17T11:03:36.448Z,22.93
2022-08-17T11:05:54.072Z,23.12
2022-08-17T11:08:13.895Z,23.32
2022-08-17T11:10:33.394Z,23.51
2022-08-17T11:12:57.053Z,23.67
2022-08-17T11:15:26.309Z,23.77
2022-08-17T11:18:06.551Z,23.83
2022-08-17T11:20:27.135Z,23.83
2022-08-17T11:22:40.660Z,23.75
2022-08-17T11:24:51.389Z,23.58
2022-08-17T11:27:25.464Z,23.43
2022-08-17T11:29:34.056Z,23.36
2022-08-17T11:31:44.255Z,23.36
2022-08-17T11:33:56.342Z,23.29
2022-08-17T11:36:11.812Z,23.28
2022-08-17T11:38:28.417Z,23.24
2022-08-17T11:41:09.381Z,23.08
2022-08-17T11:43:25.330Z,22.94
2022-08-17T11:45:35.006Z,22.96
2022-08-17T11:48:26.783Z,22.91
2022-08-17T11:51:17.591Z,22.86
2022-08-17T11:53:39.406Z,22.79
2022-08-17T11:55:44.838Z,22.73
2022-08-17T11:57:59.809Z,22.69
2022-08-17T12:00:10.507Z,22.73
2022-08-17T12:02:35.043Z,22.80
2022-08-17T12:04:39.485Z,23.00
2022-08-17T12:06:44.311Z,23.20
2022-08-17T12:08:59.096Z,23.29
2022-08-17T12:12:11.213Z,23.21
2022-08-17T12:13:49.680Z,23.08
2022-08-17T12:15:54.016Z,22.93
2022-08-17T12:17:57.165Z,22.84
2022-08-17T12:20:23.086Z,22.78
2022-08-17T12:22:33.311Z,22.76
2022-08-17T12:24:45.496Z,22.70
2022-08-17T12:26:56.456Z,22.55
2022-08-17T12:29:18.283Z,22.47
2022-08-17T12:31:48.040Z,22.36
2022-08-17T12:33:51.770Z,22.39
2022-08-17T12:36:15.344Z,22.53
2022-08-17T12:38:32.822Z,22.84
2022-08-17T12:40:35.300Z,23.22
2022-08-17T12:42:39.361Z,23.41
2022-08-17T12:44:50.050Z,23.48
2022-08-17T12:46:53.928Z,23.56
2022-08-17T12:49:15.995Z,23.66
2022-08-17T12:51:17.920Z,23.66
2022-08-17T12:53:27.350Z,23.62
2022-08-17T12:55:33.735Z,23.65
2022-08-17T12:57:38.764Z,23.68
2022-08-17T12:59:43.263Z,23.64
2022-08-17T13:01:47.153Z,23.66
2022-08-17T13:03:51.634Z,23.77
2022-08-17T13:05:57.799Z,23.92
2022-08-17T13:08:00.391Z,24.09
2022-08-17T13:10:02.697Z,24.24
2022-08-17T13:12:06.951Z,24.23
2022-08-17T13:14:10.309Z,24.01
2022-08-17T13:16:11.940Z,23.79
2022-08-17T13:18:35.188Z,23.54
2022-08-17T13:20:37.309Z,23.27
2022-08-17T13:22:39.149Z,23.09
2022-08-17T13:24:40.803Z,22.93
2022-08-17T13:26:54.888Z,22.72
2022-08-17T13:28:56.883Z,22.56
2022-08-17T13:31:32.922Z,22.44
2022-08-17T13:33:44.836Z,22.35
2022-08-17T13:35:50.298Z,22.33
2022-08-17T13:38:05.409Z,22.32
2022-08-17T13:40:09.805Z,22.34
2022-08-17T13:42:51.904Z,22.36
2022-08-17T13:44:54.858Z,22.36
2022-08-17T13:46:57.243Z,22.35
2022-08-17T13:49:04.943Z,22.34
2022-08-17T13:51:13.870Z,22.33
2022-08-17T13:53:21.551Z,22.30
2022-08-17T13:55:32.097Z,22.31
2022-08-17T13:57:34.547Z,22.33
2022-08-17T13:59:54.707Z,22.35
2022-08-17T14:02:00.339Z,22.37
2022-08-17T14:04:13.344Z,22.40
2022-08-17T14:06:23.706Z,22.42
2022-08-17T14:08:37.595Z,22.43
2022-08-17T14:10:39.335Z,22.39
2022-08-17T14:12:46.291Z,22.32
2022-08-17T14:14:49.670Z,22.31
2022-08-17T14:16:52.615Z,22.32
2022-08-17T14:18:56.145Z,22.38
2022-08-17T14:20:59.688Z,22.47
2022-08-17T14:23:01.424Z,22.53
2022-08-17T14:25:05.269Z,22.61
2022-08-17T14:27:10.362Z,22.69
2022-08-17T14:29:15.113Z,22.68
2022-08-17T14:31:17.145Z,22.66
2022-08-17T14:33:22.588Z,22.63
2022-08-17T14:35:25.117Z,22.61
2022-08-17T14:37:28.493Z,22.64
2022-08-17T14:39:30.243Z,22.66
2022-08-17T14:41:31.840Z,22.72
2022-08-17T14:43:35.291Z,22.79
2022-08-17T14:45:37.093Z,22.85
2022-08-17T14:47:41.000Z,22.87
2022-08-17T14:49:43.843Z,22.92
2022-08-17T14:51:49.576Z,22.91
2022-08-17T14:53:51.143Z,22.92
2022-08-17T14:55:52.985Z,22.95
2022-08-17T14:57:54.762Z,23.04
2022-08-17T14:59:56.723Z,23.18
2022-08-17T15:01:58.747Z,23.29
2022-08-17T15:04:00.989Z,23.28
2022-08-17T15:06:02.860Z,23.29
2022-08-17T15:08:07.871Z,23.36
2022-08-17T15:10:09.967Z,23.49
2022-08-17T15:12:17.097Z,23.64
2022-08-17T15:14:18.788Z,23.81
2022-08-17T15:16:20.569Z,23.93
2022-08-17T15:18:22.362Z,23.99
2022-08-17T15:20:28.138Z,24.02
2022-08-17T15:22:29.936Z,24.13
2022-08-17T15:24:31.600Z,24.27
2022-08-17T15:26:33.530Z,24.44
2022-08-17T15:28:36.572Z,24.63
2022-08-17T15:30:43.284Z,24.71
2022-08-17T15:32:50.773Z,24.81
2022-08-17T15:34:58.485Z,24.70
2022-08-17T15:37:00.405Z,24.46
2022-08-17T15:39:03.197Z,24.22
2022-08-17T15:41:07.713Z,23.99
2022-08-17T15:43:15.825Z,23.90
2022-08-17T15:45:24.975Z,24.15
2022-08-17T15:47:27.127Z,24.78
2022-08-17T15:49:29.299Z,25.36
2022-08-17T15:51:55.054Z,25.96
2022-08-17T15:54:18.912Z,26.41
2022-08-17T15:56:26.070Z,26.65
2022-08-17T15:58:32.211Z,26.87
2022-08-17T16:00:48.854Z,26.85
2022-08-17T16:03:46.297Z,26.61
2022-08-17T16:05:28.634Z,26.31
2022-08-17T16:07:33.552Z,26.06
2022-08-17T16:09:35.417Z,25.96
2022-08-17T16:11:37.546Z,25.83
2022-08-17T16:13:41.814Z,25.53
2022-08-17T16:15:56.578Z,25.20
2022-08-17T16:17:59.649Z,24.88
2022-08-17T16:20:01.990Z,24.62
2022-08-17T16:22:05.700Z,24.44
2022-08-17T16:24:12.672Z,24.32
2022-08-17T16:26:16.234Z,24.22
2022-08-17T16:28:18.124Z,24.03
2022-08-17T16:30:24.575Z,23.88
2022-08-17T16:32:31.916Z,23.75
2022-08-17T16:34:35.019Z,23.56
2022-08-17T16:36:37.535Z,23.40
2022-08-17T16:38:39.386Z,23.24
2022-08-17T16:40:42.072Z,23.07
2022-08-17T16:42:48.026Z,22.94
2022-08-17T16:44:51.206Z,22.84
2022-08-17T16:46:53.487Z,22.80
2022-08-17T16:49:00.194Z,22.82
2022-08-17T16:51:04.309Z,22.83
2022-08-17T16:53:16.416Z,22.83
2022-08-17T16:55:21.171Z,22.76
2022-08-17T16:57:24.211Z,22.56
2022-08-17T16:59:30.093Z,22.47
2022-08-17T17:01:43.434Z,22.44
2022-08-17T17:03:47.582Z,22.43
2022-08-17T17:06:21.070Z,22.42
2022-08-17T17:08:30.466Z,22.31
2022-08-17T17:10:55.426Z,22.22
2022-08-17T17:13:02.530Z,22.12
2022-08-17T17:15:05.801Z,22.06
2022-08-17T17:17:16.997Z,22.04
2022-08-17T17:19:35.758Z,21.97
2022-08-17T17:21:52.099Z,21.91
2022-08-17T17:23:57.008Z,21.89
2022-08-17T17:26:12.544Z,21.83
2022-08-17T17:28:44.427Z,21.71
2022-08-17T17:30:55.429Z,21.61
2022-08-17T17:33:21.433Z,21.48
2022-08-17T17:35:46.632Z,21.26
2022-08-17T17:37:48.741Z,21.09
2022-08-17T17:39:54.141Z,20.95
2022-08-17T17:41:59.057Z,20.78
2022-08-17T17:44:04.090Z,20.66
2022-08-17T17:46:28.506Z,20.59
2022-08-17T17:48:30.813Z,20.48
2022-08-17T17:50:35.048Z,20.40
2022-08-17T17:53:05.558Z,20.33
2022-08-17T17:55:22.100Z,20.26
2022-08-17T17:57:32.684Z,20.20
2022-08-17T17:59:44.323Z,20.17
2022-08-17T18:02:03.214Z,20.13
2022-08-17T18:04:25.950Z,20.10
2022-08-17T18:06:50.479Z,20.08
2022-08-17T18:09:33.986Z,20.09
2022-08-17T18:11:58.953Z,20.07
2022-08-17T18:14:05.132Z,20.04
2022-08-17T18:16:13.062Z,20.01
2022-08-17T18:18:50.052Z,19.96
2022-08-17T18:20:55.935Z,19.91
2022-08-17T18:23:03.580Z,19.88
2022-08-17T18:25:44.759Z,19.87
2022-08-17T18:27:51.342Z,19.83
2022-08-17T18:29:55.980Z,19.82
2022-08-17T18:32:38.205Z,19.79
2022-08-17T18:34:49.707Z,19.77
2022-08-17T18:36:53.219Z,19.76
2022-08-17T18:39:16.763Z,19.71
2022-08-17T18:41:23.783Z,19.65
2022-08-17T18:43:28.979Z,19.60
2022-08-17T18:45:49.321Z,19.56
2022-08-17T18:47:55.339Z,19.51
2022-08-17T18:50:01.993Z,19.46
2022-08-17T18:52:28.248Z,19.42
2022-08-17T18:54:30.070Z,19.39
2022-08-17T18:56:37.055Z,19.40
2022-08-17T18:58:39.594Z,19.39
2022-08-17T19:00:44.524Z,19.35
2022-08-17T19:02:58.850Z,19.31
2022-08-17T19:05:07.849Z,19.24
2022-08-17T19:07:26.675Z,19.16
2022-08-17T19:09:37.936Z,19.12
2022-08-17T19:11:39.936Z,19.07
2022-08-17T19:14:01.101Z,19.03
2022-08-17T19:16:44.662Z,19.02
2022-08-17T19:18:56.055Z,19.02
2022-08-17T19:21:07.701Z,19.00
2022-08-17T19:23:16.803Z,18.96
2022-08-17T19:25:23.507Z,18.92
2022-08-17T19:27:34.939Z,18.87
2022-08-17T19:29:51.815Z,18.83
2022-08-17T19:31:56.238Z,18.80
2022-08-17T19:33:58.724Z,18.77
2022-08-17T19:36:26.260Z,18.74
2022-08-17T19:38:37.122Z,18.74
2022-08-17T19:41:05.170Z,18.70
2022-08-17T19:43:06.890Z,18.63
2022-08-17T19:45:29.531Z,18.59
2022-08-17T19:47:54.730Z,18.55
2022-08-17T19:50:17.014Z,18.49
2022-08-17T19:52:46.561Z,18.45
2022-08-17T19:55:02.645Z,18.44
2022-08-17T19:57:09.456Z,18.45
2022-08-17T19:59:19.734Z,18.49
2022-08-17T20:01:34.860Z,18.48
2022-08-17T20:03:53.984Z,18.48
2022-08-17T20:06:12.466Z,18.48
2022-08-17T20:08:20.964Z,18.47
2022-08-17T20:10:47.259Z,18.47
2022-08-17T20:13:02.978Z,18.48
2022-08-17T20:15:12.517Z,18.48
2022-08-17T20:17:14.184Z,18.48
2022-08-17T20:19:35.726Z,18.46
2022-08-17T20:21:42.782Z,18.41
2022-08-17T20:23:54.271Z,18.38
2022-08-17T20:26:09.854Z,18.35
2022-08-17T20:28:35.132Z,18.34
2022-08-17T20:30:41.666Z,18.31
2022-08-17T20:32:52.970Z,18.30
2022-08-17T20:35:17.878Z,18.29
2022-08-17T20:37:19.510Z,18.26
2022-08-17T20:39:36.234Z,18.24
2022-08-17T20:42:09.990Z,18.24
2022-08-17T20:44:32.047Z,18.23
2022-08-17T20:46:36.465Z,18.23
2022-08-17T20:48:42.197Z,18.24
2022-08-17T20:50:51.486Z,18.21
2022-08-17T20:52:58.959Z,18.19
2022-08-17T20:55:02.328Z,18.16
2022-08-17T20:57:06.159Z,18.13
2022-08-17T20:59:31.792Z,18.10
2022-08-17T21:01:43.312Z,18.07
2022-08-17T21:03:50.938Z,18.04
2022-08-17T21:05:58.831Z,18.02
2022-08-17T21:08:14.650Z,17.97
2022-08-17T21:10:21.773Z,17.95
2022-08-17T21:12:45.551Z,17.92
2022-08-17T21:15:38.457Z,17.90
2022-08-17T21:17:46.573Z,17.90
2022-08-17T21:20:12.789Z,17.89
2022-08-17T21:22:34.393Z,17.86
2022-08-17T21:25:05.317Z,17.84
2022-08-17T21:27:20.309Z,17.84
2022-08-17T21:29:31.912Z,17.89
2022-08-17T21:31:41.296Z,17.90
2022-08-17T21:34:23.280Z,17.90
2022-08-17T21:36:26.645Z,17.88
2022-08-17T21:38:53.428Z,17.88
2022-08-17T21:40:58.948Z,17.86
2022-08-17T21:43:23.633Z,17.84
2022-08-17T21:45:32.521Z,17.82
2022-08-17T21:47:34.942Z,17.80
2022-08-17T21:49:37.665Z,17.79
2022-08-17T21:51:45.606Z,17.77
2022-08-17T21:54:02.209Z,17.76
2022-08-17T21:56:05.450Z,17.74
2022-08-17T21:58:22.624Z,17.74
2022-08-17T22:00:30.842Z,17.73
2022-08-17T22:02:34.626Z,17.74
2022-08-17T22:04:41.270Z,17.75
2022-08-17T22:06:52.254Z,17.74
2022-08-17T22:09:07.846Z,17.74
2022-08-17T22:11:09.618Z,17.73
2022-08-17T22:13:29.973Z,17.74
2022-08-17T22:15:34.036Z,17.76
2022-08-17T22:17:49.127Z,17.76
2022-08-17T22:19:54.193Z,17.74
2022-08-17T22:22:04.208Z,17.70
2022-08-17T22:24:21.309Z,17.69
2022-08-17T22:26:24.928Z,17.68
2022-08-17T22:28:56.516Z,17.66
2022-08-17T22:31:04.286Z,17.63
2022-08-17T22:33:29.285Z,17.61
2022-08-17T22:35:42.200Z,17.57
2022-08-17T22:37:44.049Z,17.54
2022-08-17T22:39:45.958Z,17.50
2022-08-17T22:41:55.335Z,17.48
2022-08-17T22:43:58.734Z,17.44
2022-08-17T22:46:00.431Z,17.40
2022-08-17T22:48:02.293Z,17.36
2022-08-17T22:50:14.801Z,17.34
2022-08-17T22:52:16.426Z,17.32
2022-08-17T22:54:37.376Z,17.30
2022-08-17T22:57:12.057Z,17.24
2022-08-17T22:59:38.761Z,17.19
2022-08-17T23:01:42.015Z,17.14
2022-08-17T23:04:01.765Z,17.14
2022-08-17T23:06:05.831Z,17.11
2022-08-17T23:08:07.915Z,17.10
2022-08-17T23:10:09.716Z,17.10
2022-08-17T23:12:18.837Z,17.08
2022-08-17T23:14:21.605Z,17.07
2022-08-17T23:16:28.159Z,17.06
2022-08-17T23:18:29.919Z,17.07
2022-08-17T23:20:36.981Z,17.05
2022-08-17T23:23:03.487Z,17.08
2022-08-17T23:25:06.203Z,17.07
2022-08-17T23:27:12.137Z,17.10
2022-08-17T23:29:13.827Z,17.11
2022-08-17T23:31:18.049Z,17.12
2022-08-17T23:33:25.739Z,17.13
2022-08-17T23:35:39.784Z,17.13
2022-08-17T23:37:44.021Z,17.14
2022-08-17T23:39:46.303Z,17.14
2022-08-17T23:41:53.576Z,17.13
2022-08-17T23:43:55.481Z,17.11
2022-08-17T23:45:59.819Z,17.10
2022-08-17T23:48:04.892Z,17.10
2022-08-17T23:50:08.663Z,17.09
2022-08-17T23:52:15.275Z,17.07
2022-08-17T23:54:29.805Z,17.03
2022-08-17T23:56:33.679Z,17.00
2022-08-17T23:58:35.340Z,16.99
